createdAt,value
2019-02-06T04:17:26.828Z,24.00
2019-02-06T04:19:56.043Z,23.67
2019-02-06T04:22:24.970Z,22.83
2019-02-06T04:24:54.118Z,21.80
2019-02-06T04:27:23.208Z,20.37
2019-02-06T04:29:52.283Z,20.87
2019-02-06T04:32:23.526Z,25.37
2019-02-06T04:34:52.414Z,21.80
2019-02-06T04:37:21.554Z,20.40
2019-02-06T04:39:50.611Z,23.63
2019-02-06T04:42:19.651Z,21.60
2019-02-06T04:44:48.739Z,24.30
2019-02-06T04:47:17.842Z,22.60
2019-02-06T04:49:46.962Z,24.93
2019-02-06T04:52:15.967Z,23.13
2019-02-06T04:54:44.992Z,19.90
2019-02-06T04:57:14.130Z,20.90
2019-02-06T04:59:43.138Z,19.87
2019-02-06T05:02:12.542Z,18.77
2019-02-06T05:04:42.031Z,20.10
2019-02-06T05:07:18.736Z,23.70
2019-02-06T05:09:42.027Z,21.97
2019-02-06T05:12:11.247Z,18.87
2019-02-06T05:14:40.400Z,21.50
2019-02-06T05:17:09.583Z,20.47
2019-02-06T05:19:38.967Z,20.80
2019-02-06T05:22:08.338Z,19.53
2019-02-06T05:24:37.388Z,21.37
2019-02-06T05:27:06.746Z,19.53
2019-02-06T05:29:35.747Z,18.70
2019-02-06T05:32:04.844Z,18.33
2019-02-06T05:35:37.807Z,20.23
2019-02-06T05:38:07.385Z,16.60
2019-02-06T05:40:36.455Z,19.97
2019-02-06T05:43:05.694Z,21.10
2019-02-06T05:45:34.811Z,18.77
2019-02-06T05:48:04.102Z,17.93
2019-02-06T05:50:33.261Z,20.60
2019-02-06T05:53:02.338Z,19.40
2019-02-06T05:55:31.935Z,20.87
2019-02-06T05:58:01.098Z,16.90
2019-02-06T06:00:34.436Z,18.37
2019-02-06T06:03:03.615Z,18.57
2019-02-06T06:05:32.778Z,18.93
2019-02-06T06:08:01.815Z,21.17
2019-02-06T06:10:30.821Z,21.20
2019-02-06T06:12:59.893Z,19.87
2019-02-06T06:15:28.994Z,18.40
2019-02-06T06:17:58.061Z,21.83
2019-02-06T06:20:27.225Z,23.93
2019-02-06T06:22:56.460Z,20.90
2019-02-06T06:25:25.819Z,17.53
2019-02-06T06:27:55.045Z,20.10
2019-02-06T06:30:24.218Z,20.27
2019-02-06T06:32:53.537Z,23.37
2019-02-06T06:35:22.511Z,23.60
2019-02-06T06:38:00.444Z,20.10
2019-02-06T06:40:22.849Z,22.93
2019-02-06T06:42:52.195Z,20.43
2019-02-06T06:45:22.508Z,21.37
2019-02-06T06:47:51.779Z,21.13
2019-02-06T06:50:23.047Z,20.90
2019-02-06T06:52:52.364Z,18.10
2019-02-06T06:55:21.591Z,18.37
2019-02-06T06:57:50.675Z,19.07
2019-02-06T07:00:27.589Z,20.90
2019-02-06T07:02:56.747Z,18.47
2019-02-06T07:05:25.913Z,18.23
2019-02-06T07:07:55.431Z,22.67
2019-02-06T07:10:25.023Z,20.50
2019-02-06T07:12:54.349Z,19.50
2019-02-06T07:15:31.496Z,19.20
2019-02-06T07:18:00.809Z,18.33
2019-02-06T07:20:29.962Z,20.70
2019-02-06T07:22:59.483Z,21.40
2019-02-06T07:25:28.636Z,19.20
2019-02-06T07:27:57.835Z,19.60
2019-02-06T07:30:32.432Z,17.90
2019-02-06T07:33:01.580Z,19.07
2019-02-06T07:35:30.958Z,19.40
2019-02-06T07:38:00.418Z,19.77
2019-02-06T07:40:29.561Z,20.23
2019-02-06T07:42:58.721Z,19.27
2019-02-06T07:45:28.639Z,18.00
2019-02-06T07:47:58.080Z,19.37
2019-02-06T07:50:30.206Z,18.70
2019-02-06T07:52:59.715Z,17.83
2019-02-06T07:55:28.811Z,20.23
2019-02-06T07:57:58.259Z,18.40
2019-02-06T08:00:28.035Z,19.90
2019-02-06T08:02:57.616Z,19.27
2019-02-06T08:05:26.813Z,17.20
2019-02-06T08:07:56.415Z,17.37
2019-02-06T08:10:30.466Z,20.37
2019-02-06T08:12:59.563Z,19.40
2019-02-06T08:15:29.180Z,16.57
2019-02-06T08:17:58.371Z,18.80
2019-02-06T08:20:27.587Z,21.33
2019-02-06T08:22:56.962Z,20.53
2019-02-06T08:25:26.030Z,20.60
2019-02-06T08:27:55.241Z,24.33
2019-02-06T08:30:32.639Z,19.73
2019-02-06T08:33:01.765Z,19.10
2019-02-06T08:35:31.195Z,20.00
2019-02-06T08:38:00.367Z,20.97
2019-02-06T08:40:29.578Z,22.87
2019-02-06T08:42:58.758Z,22.07
2019-02-06T08:45:27.941Z,21.20
2019-02-06T08:47:57.283Z,21.13
2019-02-06T08:50:26.985Z,22.87
2019-02-06T08:52:56.254Z,20.13
2019-02-06T08:55:27.451Z,19.47
2019-02-06T08:57:56.616Z,20.40
2019-02-06T09:00:30.691Z,18.87
2019-02-06T09:03:00.370Z,17.30
2019-02-06T09:05:29.875Z,19.30
2019-02-06T09:07:59.149Z,16.60
2019-02-06T09:10:28.446Z,20.00
2019-02-06T09:12:57.726Z,18.80
2019-02-06T09:15:27.494Z,17.70
2019-02-06T09:17:56.800Z,18.40
2019-02-06T09:20:26.942Z,18.27
2019-02-06T09:22:56.205Z,20.80
2019-02-06T09:25:25.456Z,18.73
2019-02-06T09:27:54.717Z,18.17
2019-02-06T09:30:25.782Z,19.80
2019-02-06T09:32:55.630Z,19.87
2019-02-06T09:35:24.989Z,19.53
2019-02-06T09:37:54.251Z,19.77
2019-02-06T09:40:25.206Z,21.53
2019-02-06T09:42:54.383Z,18.07
2019-02-06T09:45:23.675Z,18.70
2019-02-06T09:47:52.827Z,20.37
2019-02-06T09:50:27.329Z,19.17
2019-02-06T09:52:56.642Z,17.47
2019-02-06T09:55:25.715Z,18.40
2019-02-06T09:57:54.794Z,19.07
2019-02-06T10:00:26.068Z,19.47
2019-02-06T10:02:55.209Z,20.13
2019-02-06T10:05:24.585Z,19.63
2019-02-06T10:07:53.707Z,19.97
2019-02-06T10:10:24.035Z,21.10
2019-02-06T10:12:53.230Z,21.80
2019-02-06T10:15:24.366Z,22.13
2019-02-06T10:17:53.699Z,21.43
2019-02-06T10:20:24.303Z,19.90
2019-02-06T10:22:55.063Z,18.27
2019-02-06T10:25:24.255Z,19.60
2019-02-06T10:27:53.323Z,20.10
2019-02-06T10:30:43.342Z,20.87
2019-02-06T10:33:12.602Z,18.60
2019-02-06T10:35:41.617Z,18.70
2019-02-06T10:38:11.135Z,17.60
2019-02-06T10:40:40.293Z,16.47
2019-02-06T10:43:09.522Z,17.10
2019-02-06T10:45:38.937Z,17.50
2019-02-06T10:48:08.108Z,17.73
2019-02-06T10:50:39.866Z,17.97
2019-02-06T10:53:09.042Z,19.30
2019-02-06T10:55:38.189Z,18.80
2019-02-06T10:58:07.583Z,19.50
2019-02-06T11:01:00.103Z,18.50
2019-02-06T11:03:29.240Z,21.00
2019-02-06T11:05:58.490Z,17.00
2019-02-06T11:08:27.658Z,18.67
2019-02-06T11:10:57.155Z,18.57
2019-02-06T11:13:26.479Z,18.07
2019-02-06T11:15:55.745Z,18.20
2019-02-06T11:18:24.882Z,19.00
2019-02-06T11:20:54.010Z,18.70
2019-02-06T11:23:23.027Z,18.00
2019-02-06T11:25:52.053Z,18.00
2019-02-06T11:28:21.121Z,18.20
2019-02-06T11:30:50.404Z,18.60
2019-02-06T11:33:19.544Z,17.50
2019-02-06T11:35:48.694Z,20.40
2019-02-06T11:38:17.931Z,17.50
2019-02-06T11:40:47.026Z,19.40
2019-02-06T11:43:16.024Z,18.63
2019-02-06T11:45:45.199Z,18.20
2019-02-06T11:48:14.344Z,19.57
2019-02-06T11:50:44.569Z,19.70
2019-02-06T11:53:22.470Z,20.57
2019-02-06T11:55:51.827Z,18.67
2019-02-06T11:58:20.887Z,19.33
2019-02-06T12:01:02.855Z,17.87
2019-02-06T12:03:31.936Z,19.77
2019-02-06T12:06:01.078Z,17.43
2019-02-06T12:08:31.256Z,17.67
2019-02-06T12:11:00.351Z,17.73
2019-02-06T12:13:29.469Z,18.30
2019-02-06T12:15:58.496Z,18.37
2019-02-06T12:18:27.623Z,19.43
2019-02-06T12:20:56.830Z,17.70
2019-02-06T12:23:32.446Z,19.07
2019-02-06T12:25:57.054Z,19.67
2019-02-06T12:28:26.191Z,18.90
2019-02-06T12:30:56.234Z,17.70
2019-02-06T12:33:25.380Z,19.00
2019-02-06T12:35:54.592Z,17.53
2019-02-06T12:38:23.758Z,20.37
2019-02-06T12:40:52.816Z,19.50
2019-02-06T12:43:21.874Z,19.77
2019-02-06T12:45:50.820Z,19.27
2019-02-06T12:48:19.957Z,19.00
2019-02-06T12:50:49.125Z,19.47
2019-02-06T12:53:18.396Z,17.13
2019-02-06T12:55:47.530Z,20.40
2019-02-06T12:58:16.910Z,20.57
2019-02-06T13:00:46.067Z,20.83
2019-02-06T13:03:15.319Z,23.20
2019-02-06T13:05:44.476Z,21.60
2019-02-06T13:08:13.604Z,19.03
2019-02-06T13:10:42.703Z,19.37
2019-02-06T13:13:11.894Z,20.93
2019-02-06T13:15:41.086Z,22.40
2019-02-06T13:18:10.238Z,22.60
2019-02-06T13:20:39.718Z,20.83
2019-02-06T13:23:08.890Z,19.60
2019-02-06T13:25:37.903Z,18.50
2019-02-06T13:28:08.257Z,19.47
2019-02-06T13:30:37.714Z,18.80
2019-02-06T13:33:07.546Z,19.73
2019-02-06T13:35:37.051Z,20.23
2019-02-06T13:38:06.426Z,20.40
2019-02-06T13:40:45.248Z,20.27
2019-02-06T13:43:06.702Z,19.70
2019-02-06T13:45:38.581Z,20.77
2019-02-06T13:48:07.721Z,19.00
2019-02-06T13:50:37.429Z,19.23
2019-02-06T13:53:06.704Z,19.50
2019-02-06T13:55:35.859Z,19.53
2019-02-06T13:58:06.050Z,20.03
2019-02-06T14:00:36.411Z,18.57
2019-02-06T14:03:06.715Z,19.37
2019-02-06T14:05:36.775Z,18.53
2019-02-06T14:08:24.330Z,18.73
2019-02-06T14:11:00.240Z,18.50
2019-02-06T14:13:24.863Z,20.30
2019-02-06T14:15:54.057Z,18.67
2019-02-06T14:18:23.321Z,20.37
2019-02-06T14:20:53.837Z,20.17
2019-02-06T14:23:30.342Z,18.57
2019-02-06T14:26:14.978Z,20.70
2019-02-06T14:29:20.982Z,21.67
2019-02-06T14:32:18.276Z,23.83
2019-02-06T14:35:05.870Z,21.60
2019-02-06T14:38:28.092Z,21.07
2019-02-06T14:41:09.830Z,21.20
2019-02-06T14:44:23.048Z,21.87
2019-02-06T14:47:39.394Z,20.63
2019-02-06T14:50:40.106Z,22.97
2019-02-06T14:53:32.586Z,23.63
2019-02-06T14:56:54.762Z,24.37
2019-02-06T14:59:50.868Z,25.87
2019-02-06T15:03:00.287Z,24.50
2019-02-06T15:06:02.198Z,23.07
2019-02-06T15:09:03.479Z,25.73
2019-02-06T15:11:41.183Z,25.83
2019-02-06T15:14:48.020Z,24.23
2019-02-06T15:17:42.203Z,26.27
2019-02-06T15:20:50.766Z,23.60
2019-02-06T15:24:00.706Z,26.73
2019-02-06T15:27:03.975Z,26.13
2019-02-06T15:29:57.878Z,25.10
2019-02-06T15:33:04.521Z,28.00
2019-02-06T15:36:00.046Z,27.30
2019-02-06T15:39:22.329Z,26.13
2019-02-06T15:42:21.387Z,27.70
2019-02-06T15:45:16.303Z,29.80
2019-02-06T15:48:10.903Z,28.40
2019-02-06T15:51:42.194Z,30.40
2019-02-06T15:54:39.006Z,28.47
2019-02-06T15:57:47.785Z,30.47
2019-02-06T16:00:42.970Z,30.80
2019-02-06T16:04:17.435Z,30.00
2019-02-06T16:07:26.396Z,28.90
2019-02-06T16:10:09.474Z,28.87
2019-02-06T16:13:10.297Z,28.33
2019-02-06T16:15:55.444Z,29.93
2019-02-06T16:18:45.407Z,29.30
2019-02-06T16:21:36.214Z,30.07
2019-02-06T16:24:58.607Z,27.73
2019-02-06T16:27:59.854Z,29.50
2019-02-06T16:30:47.714Z,27.97
2019-02-06T16:33:41.872Z,27.63
2019-02-06T16:36:54.222Z,29.27
2019-02-06T16:39:35.220Z,29.80
2019-02-06T16:42:48.582Z,27.03
2019-02-06T16:46:03.858Z,28.37
2019-02-06T16:48:59.906Z,29.50
2019-02-06T16:52:09.083Z,30.20
2019-02-06T16:55:21.452Z,29.83
2019-02-06T16:58:02.430Z,26.10
2019-02-06T17:01:21.031Z,30.87
2019-02-06T17:04:13.585Z,27.33
2019-02-06T17:07:29.744Z,29.27
2019-02-06T17:10:44.667Z,27.57
2019-02-06T17:14:26.131Z,29.57
2019-02-06T17:17:25.202Z,24.63
2019-02-06T17:20:33.907Z,27.40
2019-02-06T17:23:28.319Z,28.17
2019-02-06T17:26:07.383Z,28.30
2019-02-06T17:28:52.473Z,29.60
2019-02-06T17:32:07.463Z,30.10
2019-02-06T17:35:14.237Z,30.30
2019-02-06T17:38:21.711Z,29.17
2019-02-06T17:41:04.964Z,26.97
2019-02-06T17:44:12.771Z,28.20
2019-02-06T17:46:53.375Z,26.47
2019-02-06T17:49:48.854Z,26.17
2019-02-06T17:53:02.729Z,27.93
2019-02-06T17:55:31.749Z,27.40
2019-02-06T17:58:03.167Z,29.03
2019-02-06T18:00:48.647Z,28.40
2019-02-06T18:03:17.805Z,26.47
2019-02-06T18:05:47.764Z,28.10
2019-02-06T18:08:17.178Z,27.90
2019-02-06T18:10:46.562Z,29.53
2019-02-06T18:13:16.797Z,27.00
2019-02-06T18:15:46.128Z,28.90
2019-02-06T18:18:15.332Z,27.03
2019-02-06T18:20:44.799Z,31.10
2019-02-06T18:23:13.986Z,27.50
2019-02-06T18:25:43.667Z,27.10
2019-02-06T18:28:12.842Z,26.37
2019-02-06T18:30:42.001Z,28.33
2019-02-06T18:33:12.583Z,28.40
2019-02-06T18:35:41.885Z,28.07
2019-02-06T18:38:11.693Z,25.30
2019-02-06T18:40:43.659Z,30.27
2019-02-06T18:43:12.874Z,28.17
2019-02-06T18:45:42.175Z,29.27
2019-02-06T18:48:11.365Z,32.60
2019-02-06T18:50:40.953Z,28.20
2019-02-06T18:53:10.357Z,28.87
2019-02-06T18:55:39.835Z,28.23
2019-02-06T18:58:09.418Z,29.30
2019-02-06T19:00:38.947Z,28.63
2019-02-06T19:03:12.714Z,28.57
2019-02-06T19:05:41.866Z,29.50
2019-02-06T19:08:11.286Z,29.70
2019-02-06T19:10:40.516Z,30.97
2019-02-06T19:13:10.094Z,29.00
2019-02-06T19:15:39.661Z,28.60
2019-02-06T19:18:10.629Z,28.13
2019-02-06T19:20:39.951Z,28.53
2019-02-06T19:23:09.553Z,31.00
2019-02-06T19:25:38.797Z,28.27
2019-02-06T19:28:08.093Z,30.37
2019-02-06T19:30:38.691Z,29.47
2019-02-06T19:33:08.643Z,30.80
2019-02-06T19:35:37.889Z,29.27
2019-02-06T19:38:07.556Z,29.40
2019-02-06T19:40:38.838Z,31.80
2019-02-06T19:43:07.988Z,34.03
2019-02-06T19:45:38.631Z,29.37
2019-02-06T19:48:15.827Z,29.80
2019-02-06T19:50:39.887Z,31.20
2019-02-06T19:53:09.112Z,29.53
2019-02-06T19:55:38.585Z,31.20
2019-02-06T19:58:08.159Z,30.00
2019-02-06T20:00:37.719Z,30.37
2019-02-06T20:03:08.301Z,30.37
2019-02-06T20:05:37.766Z,31.20
2019-02-06T20:08:07.613Z,30.03
2019-02-06T20:10:39.427Z,30.30
2019-02-06T20:13:12.399Z,29.17
2019-02-06T20:15:39.610Z,28.80
2019-02-06T20:18:09.092Z,27.20
2019-02-06T20:20:38.426Z,29.00
2019-02-06T20:23:07.655Z,28.90
2019-02-06T20:25:36.918Z,27.13
2019-02-06T20:28:06.070Z,29.07
2019-02-06T20:30:35.488Z,28.87
2019-02-06T20:33:04.787Z,27.47
2019-02-06T20:35:34.329Z,27.10
2019-02-06T20:38:03.583Z,24.40
2019-02-06T20:40:34.687Z,27.87
2019-02-06T20:43:04.125Z,26.63
2019-02-06T20:45:33.410Z,28.30
2019-02-06T20:48:02.588Z,26.33
2019-02-06T20:50:32.806Z,26.87
2019-02-06T20:53:02.499Z,28.97
2019-02-06T20:55:31.656Z,28.70
2019-02-06T20:58:00.794Z,24.20
2019-02-06T21:00:35.383Z,26.03
2019-02-06T21:03:05.334Z,26.63
2019-02-06T21:05:34.601Z,25.63
2019-02-06T21:08:04.464Z,27.23
2019-02-06T21:10:33.723Z,24.23
2019-02-06T21:13:03.002Z,23.40
2019-02-06T21:15:32.929Z,28.27
2019-02-06T21:18:02.227Z,26.17
2019-02-06T21:20:31.368Z,22.47
2019-02-06T21:23:01.066Z,22.37
2019-02-06T21:25:30.544Z,26.33
2019-02-06T21:28:00.001Z,27.87
2019-02-06T21:30:31.131Z,25.20
2019-02-06T21:33:00.323Z,25.70
2019-02-06T21:35:29.473Z,21.43
2019-02-06T21:37:59.077Z,23.90
2019-02-06T21:40:30.215Z,23.33
2019-02-06T21:42:59.321Z,23.30
2019-02-06T21:45:28.812Z,21.00
2019-02-06T21:47:57.915Z,24.13
2019-02-06T21:50:27.072Z,21.47
2019-02-06T21:52:56.590Z,23.37
2019-02-06T21:55:25.738Z,23.20
2019-02-06T21:57:54.919Z,21.50
2019-02-06T22:00:29.102Z,24.27
2019-02-06T22:02:58.375Z,23.17
2019-02-06T22:05:27.827Z,21.20
2019-02-06T22:07:57.021Z,23.70
2019-02-06T22:10:26.185Z,25.07
2019-02-06T22:12:55.350Z,24.10
2019-02-06T22:15:25.925Z,22.33
2019-02-06T22:17:55.103Z,23.47
2019-02-06T22:20:24.961Z,23.57
2019-02-06T22:22:54.048Z,25.10
2019-02-06T22:25:23.182Z,22.87
2019-02-06T22:27:52.331Z,22.37
2019-02-06T22:30:23.345Z,24.87
2019-02-06T22:32:52.675Z,20.30
2019-02-06T22:35:22.238Z,24.50
2019-02-06T22:37:51.412Z,20.93
2019-02-06T22:40:22.051Z,21.97
2019-02-06T22:42:51.353Z,22.70
2019-02-06T22:45:22.423Z,21.33
2019-02-06T22:47:51.701Z,22.57
2019-02-06T22:50:22.793Z,17.70
2019-02-06T22:52:51.988Z,22.33
2019-02-06T22:55:21.346Z,21.93
2019-02-06T22:57:50.503Z,21.53
2019-02-06T23:00:43.022Z,21.10
2019-02-06T23:03:12.306Z,23.80
2019-02-06T23:05:41.434Z,20.43
2019-02-06T23:08:10.821Z,20.33
2019-02-06T23:10:39.982Z,21.90
2019-02-06T23:13:09.626Z,23.93
2019-02-06T23:15:39.130Z,20.53
2019-02-06T23:18:08.269Z,23.03
2019-02-06T23:20:37.429Z,22.83
2019-02-06T23:23:06.726Z,20.50
2019-02-06T23:25:35.878Z,19.47
2019-02-06T23:28:04.956Z,20.03
